Time;durP1;ratioP1;P1;durP2;ratioP2;P2;SDS_P1;SDS_P2;PMS_P1;PMS_P2;Temp;Humidity;BMP_temperature;BMP_pressure;BME280_temperature;BME280_humidity;BME280_pressure;Samples;Min_cycle;Max_cycle;Signal;HPM_P1;HPM_P2
2022/09/15 00:01:25;;;;;;;25.07;16.67;;;;;;;12.89;100.00;100592.25;5049565;28;20040;-87
2022/09/15 00:03:51;;;;;;;25.43;16.50;;;;;;;12.80;100.00;100589.06;5049303;28;20914;-87
2022/09/15 00:06:17;;;;;;;25.97;17.23;;;;;;;12.89;100.00;100590.38;5031247;28;20109;-87
2022/09/15 00:08:43;;;;;;;25.33;17.63;;;;;;;12.84;100.00;100587.53;5049763;28;20037;-88
2022/09/15 00:11:18;;;;;;;24.47;17.60;;;;;;;12.86;100.00;100587.28;5048731;28;21084;-87
2022/09/15 00:13:44;;;;;;;25.63;18.33;;;;;;;12.84;100.00;100592.97;5050910;28;20057;-87
2022/09/15 00:16:10;;;;;;;27.57;17.43;;;;;;;12.84;100.00;100582.09;5048850;28;20094;-87
2022/09/15 00:18:38;;;;;;;26.60;17.87;;;;;;;12.83;100.00;100580.44;5049413;28;20959;-86
2022/09/15 00:21:06;;;;;;;25.37;17.57;;;;;;;12.81;100.00;100577.94;5049800;28;20041;-85
2022/09/15 00:23:31;;;;;;;27.70;17.77;;;;;;;12.82;100.00;100567.88;5049150;28;20032;-86
2022/09/15 00:25:57;;;;;;;25.70;18.20;;;;;;;12.83;100.00;100572.28;5037140;28;20045;-85
2022/09/15 00:28:22;;;;;;;28.00;18.40;;;;;;;12.85;100.00;100567.41;5049073;28;20067;-85
2022/09/15 00:30:51;;;;;;;28.33;19.50;;;;;;;12.89;100.00;100573.22;5048763;28;20033;-86
2022/09/15 00:33:18;;;;;;;27.83;19.03;;;;;;;12.88;100.00;100569.69;5048649;28;20032;-86
2022/09/15 00:35:45;;;;;;;25.13;18.13;;;;;;;12.90;100.00;100567.53;5049085;28;20083;-87
2022/09/15 00:38:13;;;;;;;27.77;18.83;;;;;;;12.92;100.00;100564.59;5048665;28;20044;-85
2022/09/15 00:40:54;;;;;;;26.30;19.40;;;;;;;12.93;100.00;100563.53;5048685;28;20521;-87
2022/09/15 00:43:42;;;;;;;27.33;19.57;;;;;;;12.93;100.00;100558.94;5048952;28;20033;-86
2022/09/15 00:46:08;;;;;;;28.43;19.47;;;;;;;12.95;100.00;100564.97;5033114;28;20080;-88
2022/09/15 00:48:37;;;;;;;25.87;18.60;;;;;;;12.96;100.00;100569.34;5048769;28;20395;-87
2022/09/15 00:51:06;;;;;;;27.37;19.07;;;;;;;12.93;100.00;100561.66;5048336;28;20047;-88
2022/09/15 00:53:32;;;;;;;25.03;18.67;;;;;;;12.98;100.00;100569.91;5048621;28;20033;-85
2022/09/15 00:56:00;;;;;;;30.43;19.60;;;;;;;12.99;100.00;100568.88;5048371;28;20171;-85
2022/09/15 00:58:43;;;;;;;28.60;19.10;;;;;;;13.05;100.00;100569.81;5048369;28;20105;-86
2022/09/15 01:01:10;;;;;;;27.70;19.13;;;;;;;13.05;100.00;100582.59;5048886;28;20476;-86
2022/09/15 01:03:36;;;;;;;27.90;18.97;;;;;;;13.02;100.00;100574.91;5048638;28;20047;-87
2022/09/15 01:06:08;;;;;;;26.40;18.93;;;;;;;13.02;100.00;100581.16;5048141;28;20476;-91
2022/09/15 01:08:42;;;;;;;25.60;18.07;;;;;;;13.04;100.00;100576.34;5048457;28;20077;-88
2022/09/15 01:11:07;;;;;;;27.20;19.02;;;;;;;12.92;100.00;100565.44;5048652;28;20120;-87
2022/09/15 01:13:33;;;;;;;27.33;19.57;;;;;;;13.06;100.00;100578.81;5047931;28;20064;-88
2022/09/15 01:16:18;;;;;;;30.00;20.83;;;;;;;13.08;100.00;100591.13;5048034;28;20071;-87
2022/09/15 01:19:10;;;;;;;27.47;19.93;;;;;;;13.10;100.00;100588.16;5048181;28;20090;-85
2022/09/15 01:21:56;;;;;;;28.03;18.33;;;;;;;13.07;100.00;100578.59;5048196;28;20105;-88
2022/09/15 01:24:36;;;;;;;26.27;18.83;;;;;;;13.14;100.00;100583.91;5018662;28;20056;-89
2022/09/15 01:27:13;;;;;;;26.20;18.67;;;;;;;13.14;100.00;100583.91;5047982;28;20066;-86
2022/09/15 01:29:38;;;;;;;27.43;18.57;;;;;;;13.13;100.00;100568.66;5047994;28;20040;-88
2022/09/15 01:35:16;;;;;;;24.77;17.77;;;;;;;13.25;100.00;100571.38;5047450;28;20062;-88
2022/09/15 01:37:45;;;;;;;25.77;17.90;;;;;;;13.23;100.00;100571.63;5047308;28;20033;-87
2022/09/15 01:40:14;;;;;;;24.40;18.00;;;;;;;13.18;100.00;100563.34;5047502;28;20583;-88
2022/09/15 01:42:41;;;;;;;24.27;16.90;;;;;;;13.25;100.00;100577.63;5047819;28;20039;-87
2022/09/15 01:45:16;;;;;;;21.57;15.53;;;;;;;13.29;100.00;100569.84;5047447;28;20060;-88
2022/09/15 01:47:44;;;;;;;24.50;16.70;;;;;;;13.29;100.00;100567.94;5046862;28;20024;-88
2022/09/15 01:50:14;;;;;;;22.73;16.03;;;;;;;13.29;100.00;100561.69;5047758;28;20553;-87
2022/09/15 01:52:43;;;;;;;23.87;17.07;;;;;;;13.30;100.00;100574.19;5046637;28;20035;-87
2022/09/15 01:55:19;;;;;;;21.23;16.17;;;;;;;13.30;100.00;100576.91;5047683;28;20074;-87
2022/09/15 01:57:45;;;;;;;23.00;15.57;;;;;;;13.17;100.00;100553.50;5046922;28;20123;-87
2022/09/15 02:00:11;;;;;;;24.53;16.20;;;;;;;13.28;100.00;100574.44;5048051;28;20043;-87
2022/09/15 02:02:54;;;;;;;25.50;16.97;;;;;;;13.30;100.00;100566.03;5048001;28;20036;-90
2022/09/15 02:05:25;;;;;;;24.53;16.67;;;;;;;13.27;100.00;100564.66;5046191;28;20024;-90
2022/09/15 02:08:03;;;;;;;21.90;15.60;;;;;;;13.23;100.00;100568.06;5049528;28;20041;-87
2022/09/15 02:10:37;;;;;;;24.77;16.30;;;;;;;13.22;100.00;100566.38;5049367;28;20137;-86
2022/09/15 02:13:15;;;;;;;22.93;15.87;;;;;;;13.26;100.00;100573.88;5047541;28;20037;-89
2022/09/15 02:15:50;;;;;;;24.50;16.53;;;;;;;13.16;100.00;100565.44;5047547;28;20514;-86
2022/09/15 02:18:27;;;;;;;24.87;16.67;;;;;;;13.22;100.00;100563.66;5047248;28;20024;-86
2022/09/15 02:21:01;;;;;;;23.33;16.13;;;;;;;13.22;100.00;100572.69;5047420;28;20161;-87
2022/09/15 02:23:33;;;;;;;25.65;16.33;;;;;;;13.15;100.00;100561.06;5048025;28;20051;-88
2022/09/15 02:26:06;;;;;;;23.60;16.23;;;;;;;13.16;100.00;100573.59;5035134;28;20032;-88
2022/09/15 02:28:36;;;;;;;25.37;17.33;;;;;;;13.14;100.00;100578.47;5046656;28;20041;-85
2022/09/15 02:31:04;;;;;;;23.10;16.20;;;;;;;13.10;100.00;100572.66;5036098;28;20057;-87
2022/09/15 02:33:34;;;;;;;22.23;17.10;;;;;;;13.03;100.00;100565.66;5046367;28;20061;-88
2022/09/15 02:36:01;;;;;;;25.20;16.97;;;;;;;13.00;100.00;100564.25;5056822;28;20032;-86
2022/09/15 02:38:32;;;;;;;25.83;17.40;;;;;;;13.02;100.00;100573.00;5070803;28;20029;-86
2022/09/15 02:40:58;;;;;;;25.17;16.70;;;;;;;13.00;100.00;100569.69;5072227;28;20070;-86
2022/09/15 02:43:23;;;;;;;23.67;16.97;;;;;;;12.96;100.00;100555.75;5057722;28;20064;-85
2022/09/15 02:45:49;;;;;;;24.90;16.83;;;;;;;12.91;100.00;100558.34;5057323;28;20020;-86
2022/09/15 02:48:14;;;;;;;24.33;17.23;;;;;;;12.95;100.00;100566.88;5068894;28;20029;-88
2022/09/15 02:50:40;;;;;;;22.73;15.40;;;;;;;12.91;100.00;100562.97;5048661;28;20495;-88
2022/09/15 02:53:06;;;;;;;25.40;16.37;;;;;;;12.92;100.00;100578.19;5050458;28;20405;-87
2022/09/15 02:55:32;;;;;;;25.23;16.37;;;;;;;12.92;100.00;100575.47;5050630;28;20159;-85
2022/09/15 02:57:58;;;;;;;24.03;16.10;;;;;;;12.90;100.00;100574.88;5054241;28;20037;-87
2022/09/15 03:00:25;;;;;;;24.03;16.23;;;;;;;12.91;100.00;100571.94;5054029;28;20045;-86
2022/09/15 03:02:53;;;;;;;21.53;16.47;;;;;;;12.93;100.00;100568.97;5053739;28;20032;-88
2022/09/15 03:05:26;;;;;;;23.43;17.60;;;;;;;12.95;100.00;100570.41;5053741;28;20051;-88
2022/09/15 03:07:52;;;;;;;22.10;16.93;;;;;;;12.94;100.00;100567.91;5053917;28;20045;-87
2022/09/15 03:10:18;;;;;;;24.13;17.60;;;;;;;12.96;100.00;100574.78;5054151;28;20700;-88
2022/09/15 03:12:49;;;;;;;24.60;17.30;;;;;;;12.97;100.00;100581.88;5031733;28;20060;-87
2022/09/15 03:15:17;;;;;;;24.40;17.70;;;;;;;13.00;100.00;100578.69;5034046;28;20149;-88
2022/09/15 03:17:45;;;;;;;24.03;18.60;;;;;;;12.94;100.00;100567.91;5033860;28;20033;-88
2022/09/15 03:20:14;;;;;;;23.00;16.77;;;;;;;13.04;100.00;100589.94;5034207;28;20048;-88
2022/09/15 03:22:39;;;;;;;23.97;16.73;;;;;;;13.08;100.00;100593.00;5033681;28;20085;-89
2022/09/15 03:25:06;;;;;;;25.50;17.67;;;;;;;13.06;100.00;100595.97;5034174;28;20042;-87
2022/09/15 03:27:33;;;;;;;27.50;18.00;;;;;;;13.06;100.00;100586.97;5034913;28;20029;-88
2022/09/15 03:29:59;;;;;;;22.37;16.23;;;;;;;13.04;100.00;100595.38;5033847;28;20374;-87
2022/09/15 03:32:24;;;;;;;22.87;16.30;;;;;;;13.10;100.00;100607.22;5049596;28;20044;-85
2022/09/15 03:34:49;;;;;;;23.53;16.57;;;;;;;13.12;100.00;100605.06;5032774;28;20106;-90
2022/09/15 03:37:15;;;;;;;24.97;16.37;;;;;;;13.15;100.00;100604.59;5033476;28;20041;-86
2022/09/15 03:39:40;;;;;;;21.10;15.60;;;;;;;13.15;100.00;100612.75;5033069;28;20080;-87
2022/09/15 03:42:06;;;;;;;21.07;14.60;;;;;;;13.15;100.00;100610.88;5033647;28;20121;-88
2022/09/15 03:44:31;;;;;;;22.30;14.93;;;;;;;13.17;100.00;100602.47;5048595;28;20136;-88
2022/09/15 03:46:57;;;;;;;25.03;15.67;;;;;;;13.18;100.00;100604.97;5033606;28;20033;-89
2022/09/15 03:49:23;;;;;;;20.23;14.70;;;;;;;13.21;100.00;100608.28;5033473;28;20038;-88
2022/09/15 03:51:49;;;;;;;22.57;14.30;;;;;;;13.25;100.00;100620.34;5028068;28;20045;-89
2022/09/15 03:54:14;;;;;;;20.10;14.07;;;;;;;13.25;100.00;100618.44;5033472;28;20083;-91
2022/09/15 03:56:39;;;;;;;21.13;13.90;;;;;;;13.26;100.00;100617.41;5033518;28;20489;-89
2022/09/15 03:59:05;;;;;;;18.33;13.03;;;;;;;13.28;100.00;100614.44;5034724;28;20045;-89
2022/09/15 04:01:31;;;;;;;19.53;12.90;;;;;;;13.33;100.00;100607.22;5033677;28;20044;-90
2022/09/15 04:03:57;;;;;;;22.30;13.53;;;;;;;13.32;100.00;100616.44;5033121;28;20122;-88
2022/09/15 04:06:24;;;;;;;20.43;13.47;;;;;;;13.30;100.00;100602.25;5033705;28;20461;-89
2022/09/15 04:08:51;;;;;;;18.97;12.67;;;;;;;13.33;100.00;100609.94;5032797;28;20076;-90
2022/09/15 04:11:18;;;;;;;23.93;13.67;;;;;;;13.33;100.00;100601.78;5034816;28;20373;-88
2022/09/15 04:13:44;;;;;;;21.50;13.60;;;;;;;13.32;100.00;100605.56;5049097;28;20047;-88
2022/09/15 04:16:13;;;;;;;20.53;13.67;;;;;;;13.26;100.00;100592.91;5055484;28;20031;-88
2022/09/15 04:18:39;;;;;;;22.23;14.97;;;;;;;13.24;100.00;100596.94;5052579;28;20035;-88
2022/09/15 04:21:07;;;;;;;20.17;14.37;;;;;;;13.25;100.00;100604.84;5052968;28;20032;-88
2022/09/15 04:23:33;;;;;;;19.73;14.07;;;;;;;13.21;100.00;100598.22;5052896;28;20041;-87
2022/09/15 04:26:10;;;;;;;20.83;14.73;;;;;;;13.18;100.00;100595.97;5052510;28;20041;-86
2022/09/15 04:28:37;;;;;;;22.03;14.20;;;;;;;13.17;100.00;100599.75;5053063;28;20429;-88
2022/09/15 04:31:08;;;;;;;21.70;14.37;;;;;;;13.12;100.00;100589.59;5030130;28;20091;-86
2022/09/15 04:33:34;;;;;;;20.37;15.93;;;;;;;13.19;100.00;100605.81;5051606;28;20028;-87
2022/09/15 04:36:09;;;;;;;22.17;15.43;;;;;;;13.16;100.00;100600.81;5033654;28;20047;-85
2022/09/15 04:38:35;;;;;;;20.97;15.43;;;;;;;13.16;100.00;100592.66;5052169;28;20028;-87
2022/09/15 04:41:01;;;;;;;21.40;15.10;;;;;;;13.18;100.00;100595.97;5052233;28;20090;-87
2022/09/15 04:43:27;;;;;;;22.00;15.30;;;;;;;13.15;100.00;100588.25;5052314;28;20041;-88
2022/09/15 04:45:53;;;;;;;21.30;14.40;;;;;;;13.23;100.00;100595.25;5052342;28;20393;-85
2022/09/15 04:48:20;;;;;;;20.83;15.60;;;;;;;13.18;100.00;100593.25;5052787;28;20043;-85
2022/09/15 04:50:45;;;;;;;23.63;14.80;;;;;;;13.22;100.00;100599.03;5035543;28;20512;-86
2022/09/15 04:53:11;;;;;;;19.60;14.40;;;;;;;13.23;100.00;100604.28;5052384;28;20041;-88
2022/09/15 04:55:36;;;;;;;22.13;14.47;;;;;;;13.21;100.00;100603.66;5050624;28;20383;-87
2022/09/15 04:58:02;;;;;;;20.83;14.60;;;;;;;13.24;100.00;100600.47;5052522;28;20461;-88
2022/09/15 05:00:29;;;;;;;20.30;13.07;;;;;;;13.24;100.00;100605.91;5051649;28;20674;-86
2022/09/15 05:02:54;;;;;;;21.83;13.60;;;;;;;13.26;100.00;100601.06;5052187;28;20047;-87
2022/09/15 05:05:19;;;;;;;21.80;12.77;;;;;;;13.11;100.00;100582.50;5051743;28;20495;-87
2022/09/15 05:07:48;;;;;;;21.93;13.20;;;;;;;13.21;100.00;100608.28;5035569;28;20036;-87
2022/09/15 05:10:13;;;;;;;19.27;12.93;;;;;;;13.16;100.00;100606.25;5051481;28;20126;-86
2022/09/15 05:12:40;;;;;;;24.13;13.50;;;;;;;13.10;100.00;100591.72;5052465;28;20054;-87
2022/09/15 05:15:06;;;;;;;21.30;13.00;;;;;;;13.15;100.00;100604.59;5051440;28;20054;-88
2022/09/15 05:17:32;;;;;;;20.10;12.63;;;;;;;13.10;100.00;100607.22;5051555;28;20035;-89
2022/09/15 05:19:58;;;;;;;18.90;12.67;;;;;;;13.11;100.00;100603.41;5050657;28;20503;-87
2022/09/15 05:22:24;;;;;;;18.80;13.20;;;;;;;13.06;100.00;100606.84;5033747;28;20055;-88
2022/09/15 05:24:50;;;;;;;17.67;12.43;;;;;;;13.12;100.00;100610.50;5034691;28;20990;-88
2022/09/15 05:27:15;;;;;;;20.67;13.10;;;;;;;13.09;100.00;100600.09;5051770;28;20036;-86
2022/09/15 05:29:41;;;;;;;20.60;13.57;;;;;;;13.00;100.00;100597.72;5050695;28;20408;-88
2022/09/15 05:32:07;;;;;;;18.47;13.67;;;;;;;13.06;100.00;100598.69;5051822;28;20032;-87
2022/09/15 05:34:32;;;;;;;20.20;13.57;;;;;;;13.11;100.00;100614.28;5049482;28;20530;-87
2022/09/15 05:36:58;;;;;;;19.90;12.87;;;;;;;13.11;100.00;100608.84;5049809;28;20115;-88
2022/09/15 05:39:23;;;;;;;22.93;13.43;;;;;;;13.05;100.00;100609.78;5038881;28;20036;-89
2022/09/15 05:41:49;;;;;;;19.63;13.73;;;;;;;13.10;100.00;100616.19;5049767;28;20047;-88
2022/09/15 05:44:14;;;;;;;20.70;13.20;;;;;;;13.12;100.00;100629.53;5050417;28;20115;-88
2022/09/15 05:46:39;;;;;;;19.63;14.07;;;;;;;13.15;100.00;100626.34;5051301;28;20032;-87
2022/09/15 05:49:05;;;;;;;18.67;12.93;;;;;;;13.15;100.00;100623.63;5029304;28;20028;-88
2022/09/15 05:51:31;;;;;;;19.40;13.80;;;;;;;13.14;100.00;100624.72;5051525;28;20086;-88
2022/09/15 05:53:57;;;;;;;18.90;13.77;;;;;;;13.11;100.00;100625.16;5050639;28;20409;-88
2022/09/15 05:56:22;;;;;;;23.07;13.87;;;;;;;13.12;100.00;100626.81;5050940;28;20565;-88
2022/09/15 05:58:48;;;;;;;20.03;14.03;;;;;;;13.16;100.00;100637.03;5051174;28;20139;-87
2022/09/15 06:01:25;;;;;;;20.77;12.77;;;;;;;13.18;100.00;100639.50;5051391;28;20053;-88
2022/09/15 06:03:51;;;;;;;19.10;12.60;;;;;;;13.22;100.00;100646.13;5051652;28;20499;-88
2022/09/15 06:06:17;;;;;;;19.47;12.77;;;;;;;13.23;100.00;100642.34;5051299;28;20413;-86
2022/09/15 06:08:45;;;;;;;18.50;12.60;;;;;;;13.34;100.00;100641.53;5049792;28;20044;-87
2022/09/15 06:11:14;;;;;;;18.70;12.80;;;;;;;13.40;100.00;100642.50;5050966;28;20150;-88
2022/09/15 06:13:40;;;;;;;19.77;12.67;;;;;;;13.34;100.00;100636.09;5050423;28;20465;-88
2022/09/15 06:16:11;;;;;;;18.37;12.60;;;;;;;13.39;100.00;100640.84;5050589;28;20077;-90
2022/09/15 06:18:38;;;;;;;17.83;12.27;;;;;;;13.41;100.00;100629.72;5051108;28;20036;-88
2022/09/15 06:21:08;;;;;;;20.47;12.53;;;;;;;13.53;100.00;100643.34;5050906;28;20041;-88
2022/09/15 06:23:34;;;;;;;17.53;11.80;;;;;;;13.54;100.00;100645.81;5051241;28;20041;-88
2022/09/15 06:26:08;;;;;;;22.03;13.23;;;;;;;13.53;100.00;100644.19;5050556;28;20048;-87
2022/09/15 06:28:33;;;;;;;21.73;14.60;;;;;;;13.61;100.00;100654.72;5051513;28;20029;-89
2022/09/15 06:30:59;;;;;;;20.43;13.53;;;;;;;13.60;100.00;100658.50;5052984;28;21389;-87
2022/09/15 06:33:24;;;;;;;20.07;13.53;;;;;;;13.61;100.00;100657.44;5059259;28;20491;-87
2022/09/15 06:35:49;;;;;;;20.30;13.57;;;;;;;13.60;100.00;100661.22;5056378;28;20040;-86
2022/09/15 06:38:15;;;;;;;17.83;13.10;;;;;;;13.58;100.00;100657.91;5066302;28;20460;-87
2022/09/15 06:40:40;;;;;;;19.50;12.83;;;;;;;13.68;100.00;100668.19;5064183;28;20380;-86
2022/09/15 06:43:05;;;;;;;18.67;12.93;;;;;;;13.71;100.00;100675.91;5076948;28;20033;-86
2022/09/15 06:45:31;;;;;;;18.20;12.40;;;;;;;13.70;100.00;100673.41;5071364;28;20061;-86
2022/09/15 06:47:56;;;;;;;19.50;12.37;;;;;;;13.77;100.00;100676.84;5056019;28;20071;-87
2022/09/15 06:50:21;;;;;;;17.13;12.13;;;;;;;13.80;100.00;100681.81;5069221;28;20037;-86
2022/09/15 06:52:47;;;;;;;16.93;11.37;;;;;;;13.83;100.00;100676.72;5047738;28;20040;-86
2022/09/15 06:55:12;;;;;;;17.33;10.97;;;;;;;13.92;100.00;100693.53;5068178;28;20036;-87
2022/09/15 06:57:37;;;;;;;17.23;11.40;;;;;;;13.98;100.00;100684.41;5055356;28;20033;-89
2022/09/15 07:00:05;;;;;;;14.67;9.40;;;;;;;14.04;100.00;100687.25;5071732;28;20040;-86
2022/09/15 07:02:30;;;;;;;11.30;8.40;;;;;;;14.05;100.00;100695.19;5067968;28;20040;-86
2022/09/15 07:04:56;;;;;;;15.40;8.50;;;;;;;14.12;100.00;100695.06;5059901;28;20036;-86
2022/09/15 07:07:21;;;;;;;13.03;7.77;;;;;;;14.18;100.00;100699.53;5069608;28;20044;-87
2022/09/15 07:09:46;;;;;;;15.67;8.63;;;;;;;14.27;100.00;100702.72;5072968;28;20406;-86
2022/09/15 07:12:12;;;;;;;15.83;8.37;;;;;;;14.29;100.00;100700.59;5071588;28;20037;-87
2022/09/15 07:14:37;;;;;;;15.70;7.80;;;;;;;14.37;100.00;100705.66;5059689;28;20385;-86
2022/09/15 07:17:02;;;;;;;15.67;8.00;;;;;;;14.43;100.00;100704.72;5066298;28;20029;-87
2022/09/15 07:19:28;;;;;;;14.00;7.93;;;;;;;14.49;100.00;100698.28;5064467;28;20085;-86
2022/09/15 07:21:53;;;;;;;13.07;7.70;;;;;;;14.49;100.00;100700.19;5059586;28;20373;-87
2022/09/15 07:24:18;;;;;;;14.60;7.83;;;;;;;14.58;100.00;100708.78;5070996;28;20064;-87
2022/09/15 07:26:44;;;;;;;15.67;7.10;;;;;;;14.60;100.00;100707.50;5064686;28;20024;-88
2022/09/15 07:29:09;;;;;;;11.97;7.20;;;;;;;14.67;100.00;100713.69;5067819;28;20026;-86
2022/09/15 07:31:37;;;;;;;12.03;6.23;;;;;;;14.63;100.00;100706.22;5052151;28;20127;-87
2022/09/15 07:34:03;;;;;;;14.43;6.87;;;;;;;14.70;100.00;100717.81;5065039;28;20392;-86
2022/09/15 07:36:29;;;;;;;12.77;6.03;;;;;;;14.72;100.00;100717.59;5062877;28;20025;-87
2022/09/15 07:38:54;;;;;;;10.93;5.53;;;;;;;14.76;100.00;100716.84;5053947;28;20480;-86
2022/09/15 07:41:23;;;;;;;11.60;5.60;;;;;;;14.81;100.00;100721.56;5058299;28;20032;-86
2022/09/15 07:43:50;;;;;;;12.33;4.93;;;;;;;14.83;99.95;100722.97;5075215;28;20353;-87
2022/09/15 07:46:17;;;;;;;8.13;4.47;;;;;;;14.90;99.59;100731.00;5057952;28;20046;-87
2022/09/15 07:48:44;;;;;;;9.43;4.60;;;;;;;14.95;98.80;100733.03;5074830;28;20055;-86
2022/09/15 07:51:09;;;;;;;9.00;4.80;;;;;;;14.99;100.00;100732.28;5064884;28;20029;-87
2022/09/15 07:53:35;;;;;;;11.00;4.43;;;;;;;15.01;97.44;100729.31;5067515;28;20055;-86
2022/09/15 07:56:00;;;;;;;11.47;4.27;;;;;;;15.05;95.40;100738.66;5073364;28;20103;-87
2022/09/15 07:58:26;;;;;;;12.60;4.90;;;;;;;15.07;96.94;100732.94;5062358;28;20037;-86
2022/09/15 08:00:51;;;;;;;9.93;4.53;;;;;;;14.97;97.51;100718.06;5066077;28;20033;-87
2022/09/15 08:03:17;;;;;;;13.27;5.13;;;;;;;15.09;97.87;100742.56;5060810;28;20020;-86
2022/09/15 08:05:42;;;;;;;10.30;5.20;;;;;;;15.02;98.16;100729.06;5058251;28;20368;-85
2022/09/15 08:08:07;;;;;;;10.43;5.03;;;;;;;15.05;98.50;100737.84;5067595;28;20456;-86
2022/09/15 08:10:34;;;;;;;9.20;4.90;;;;;;;15.06;97.43;100748.50;5066724;28;20063;-86
2022/09/15 08:12:59;;;;;;;10.00;5.87;;;;;;;15.11;99.19;100747.75;5074168;28;20037;-87
2022/09/15 08:15:25;;;;;;;11.07;6.03;;;;;;;15.13;99.52;100742.91;5069744;28;20052;-88
2022/09/15 08:17:51;;;;;;;12.10;6.13;;;;;;;15.16;98.41;100743.25;5050142;28;20076;-87
2022/09/15 08:20:17;;;;;;;10.37;5.97;;;;;;;15.18;98.16;100749.28;5047770;28;20461;-89
2022/09/15 08:22:44;;;;;;;12.47;6.00;;;;;;;15.26;98.12;100747.22;5048405;28;20059;-89
2022/09/15 08:25:10;;;;;;;10.47;5.70;;;;;;;15.20;97.71;100729.91;5048348;28;20036;-87
2022/09/15 08:27:36;;;;;;;13.40;5.10;;;;;;;15.30;97.07;100751.94;5048561;28;20037;-87
2022/09/15 08:30:03;;;;;;;9.17;4.83;;;;;;;15.31;95.94;100753.63;5048115;28;20044;-88
2022/09/15 08:32:28;;;;;;;12.67;4.77;;;;;;;15.31;95.27;100756.34;5027357;28;20376;-87
2022/09/15 08:34:53;;;;;;;9.40;3.80;;;;;;;15.23;93.03;100736.78;5048310;28;20226;-89
2022/09/15 08:37:19;;;;;;;10.93;3.87;;;;;;;15.40;92.19;100758.66;5047702;28;20064;-87
2022/09/15 08:39:45;;;;;;;7.93;3.70;;;;;;;15.39;91.71;100762.47;5048546;28;20036;-89
2022/09/15 08:42:16;;;;;;;9.63;4.10;;;;;;;15.42;92.71;100768.28;5046842;28;20051;-87
2022/09/15 08:45:14;;;;;;;10.40;4.30;;;;;;;15.51;93.90;100771.41;5049070;28;20028;-87
2022/09/15 08:47:44;;;;;;;7.83;4.13;;;;;;;15.48;93.12;100772.72;5047537;28;20062;-88
2022/09/15 08:50:26;;;;;;;11.53;4.30;;;;;;;15.57;93.19;100778.63;5049025;28;20437;-87
2022/09/15 08:53:08;;;;;;;9.80;4.77;;;;;;;15.67;94.48;100773.31;5047654;28;20037;-89
2022/09/15 08:55:47;;;;;;;8.27;3.10;;;;;;;15.69;89.09;100782.13;5047313;28;20239;-87
2022/09/15 08:58:36;;;;;;;11.73;3.30;;;;;;;15.80;88.48;100780.41;5027472;28;21070;-87
2022/09/15 09:01:07;;;;;;;9.03;3.20;;;;;;;15.85;86.19;100785.94;5048180;28;20032;-87
2022/09/15 09:04:10;;;;;;;9.90;3.20;;;;;;;16.01;87.96;100794.41;5048050;28;20032;-87
2022/09/15 09:06:51;;;;;;;10.20;3.10;;;;;;;15.97;86.06;100790.50;5047323;28;20040;-87
2022/09/15 09:09:46;;;;;;;6.20;3.10;;;;;;;16.03;87.84;100806.75;5047750;28;20578;-87
2022/09/15 09:12:33;;;;;;;8.73;3.60;;;;;;;16.03;88.89;100803.16;5046559;28;20028;-87
2022/09/15 09:15:24;;;;;;;6.87;3.37;;;;;;;15.99;88.59;100804.72;5047845;28;20061;-89
2022/09/15 09:18:34;;;;;;;6.07;2.97;;;;;;;16.01;88.04;100808.06;5047488;28;20506;-89
2022/09/15 09:21:22;;;;;;;9.70;3.37;;;;;;;15.95;88.14;100811.78;5032424;28;20159;-89
2022/09/15 09:23:53;;;;;;;9.20;4.13;;;;;;;15.92;88.64;100813.09;5047465;28;20047;-87
2022/09/15 09:26:19;;;;;;;11.07;4.20;;;;;;;15.89;89.69;100808.13;5048174;28;20119;-88
2022/09/15 09:28:48;;;;;;;8.73;4.20;;;;;;;15.89;91.05;100818.25;5025917;28;20036;-88
2022/09/15 09:31:20;;;;;;;11.10;4.47;;;;;;;15.87;90.40;100813.03;5047514;28;20218;-87
2022/09/15 09:34:09;;;;;;;10.17;3.80;;;;;;;15.85;89.50;100810.53;5045027;28;20067;-87
2022/09/15 09:36:34;;;;;;;7.87;4.03;;;;;;;15.78;90.14;100804.38;5047479;28;20032;-87
2022/09/15 09:39:00;;;;;;;9.43;4.10;;;;;;;15.76;90.80;100813.88;5047201;28;20036;-86
2022/09/15 09:41:34;;;;;;;10.83;4.07;;;;;;;15.78;90.17;100817.22;5048509;28;20032;-86
2022/09/15 09:44:05;;;;;;;9.15;3.60;;;;;;;15.76;90.14;100813.88;5047571;28;20044;-86
2022/09/15 09:46:31;;;;;;;10.97;3.73;;;;;;;15.66;90.16;100798.97;5047438;28;20115;-86
2022/09/15 09:49:05;;;;;;;12.90;4.00;;;;;;;15.71;92.37;100798.25;5047760;28;20123;-86
2022/09/15 09:51:30;;;;;;;;;;;;;;;15.90;92.61;100812.53;5047935;28;20403;-87
2022/09/15 09:54:02;;;;;;;8.87;3.80;;;;;;;15.71;92.41;100809.19;5047701;28;19968;-86
2022/09/15 09:56:31;;;;;;;7.27;3.40;;;;;;;15.57;90.78;100802.38;5047260;28;20032;-86
2022/09/15 09:58:56;;;;;;;8.30;2.80;;;;;;;15.45;88.10;100805.16;5047130;28;20494;-85
2022/09/15 10:01:24;;;;;;;7.63;2.73;;;;;;;15.52;88.76;100822.22;5047378;28;20080;-85
2022/09/15 10:04:16;;;;;;;7.60;2.80;;;;;;;15.49;91.12;100807.16;5047733;28;20032;-87
2022/09/15 10:06:41;;;;;;;6.10;2.80;;;;;;;15.52;90.47;100817.59;5047522;28;20043;-87
2022/09/15 10:09:18;;;;;;;11.53;2.73;;;;;;;15.58;89.19;100815.78;5047637;28;20380;-85
2022/09/15 10:11:53;;;;;;;7.40;2.80;;;;;;;15.55;89.21;100824.47;5047013;28;20029;-86
2022/09/15 10:14:34;;;;;;;7.07;2.40;;;;;;;15.57;88.35;100825.06;5049340;28;20063;-85
2022/09/15 10:17:06;;;;;;;8.57;2.13;;;;;;;15.63;88.21;100813.13;5047411;28;20131;-88
2022/09/15 10:19:44;;;;;;;4.53;2.30;;;;;;;15.78;90.73;100809.03;5047044;28;20036;-87
2022/09/15 10:22:24;;;;;;;8.10;2.90;;;;;;;15.91;91.52;100795.06;5046665;28;20029;-85
2022/09/15 10:24:50;;;;;;;7.37;2.83;;;;;;;16.09;89.33;100801.31;5047225;28;20175;-87
2022/09/15 10:27:26;;;;;;;6.70;2.80;;;;;;;16.35;93.03;100813.50;5048421;28;20032;-87
2022/09/15 10:29:52;;;;;;;7.73;2.80;;;;;;;16.20;88.80;100816.81;5047520;28;20032;-85
2022/09/15 10:32:29;;;;;;;7.50;2.73;;;;;;;16.23;89.06;100826.44;5047437;28;20033;-86
2022/09/15 10:34:59;;;;;;;6.90;2.70;;;;;;;16.18;89.61;100830.75;5047612;28;20043;-86
2022/09/15 10:37:42;;;;;;;5.87;2.57;;;;;;;16.13;92.74;100838.00;5047123;28;20040;-88
2022/09/15 10:40:45;;;;;;;8.43;1.90;;;;;;;15.86;87.93;100839.50;5027851;28;20504;-85
2022/09/15 10:43:34;;;;;;;3.43;1.17;;;;;;;15.47;83.39;100841.25;5046674;28;20037;-87
2022/09/15 10:46:08;;;;;;;4.90;1.10;;;;;;;15.26;85.33;100834.56;5046942;28;20028;-89
2022/09/15 10:49:07;;;;;;;4.65;1.15;;;;;;;15.12;86.00;100823.94;5058063;28;20052;-87
2022/09/15 10:51:51;;;;;;;4.10;1.30;;;;;;;14.89;87.22;100824.00;5059873;28;20033;-87
2022/09/15 10:54:25;;;;;;;4.88;1.30;;;;;;;14.84;88.40;100824.75;5068613;28;20029;-87
2022/09/15 10:57:09;;;;;;;5.97;1.40;;;;;;;14.75;89.13;100826.19;5060857;28;20028;-88
2022/09/15 10:59:44;;;;;;;5.18;1.48;;;;;;;14.67;91.18;100830.94;5042738;28;20024;-87
2022/09/15 11:02:26;;;;;;;9.33;1.70;;;;;;;14.53;89.13;100829.50;5060588;28;20036;-88
2022/09/15 11:05:17;;;;;;;2.90;1.33;;;;;;;14.52;92.58;100823.22;5066182;28;20134;-89
2022/09/15 11:07:53;;;;;;;4.73;1.30;;;;;;;14.45;90.40;100810.78;5061970;28;20025;-87
2022/09/15 11:10:18;;;;;;;6.13;1.50;;;;;;;14.43;90.56;100819.19;5059163;28;20025;-87
2022/09/15 11:13:09;;;;;;;5.00;1.50;;;;;;;14.51;90.76;100823.47;5073041;28;20365;-87
2022/09/15 11:15:53;;;;;;;3.60;1.23;;;;;;;14.47;89.27;100822.25;5058527;28;20392;-87
2022/09/15 11:18:40;;;;;;;3.05;1.20;;;;;;;14.55;89.24;100821.06;5064314;28;20035;-87
2022/09/15 11:21:33;;;;;;;8.10;1.67;;;;;;;14.64;90.26;100822.41;5068784;28;20033;-87
2022/09/15 11:24:32;;;;;;;4.43;1.20;;;;;;;14.74;89.95;100817.19;5062912;28;20459;-87
2022/09/15 11:27:27;;;;;;;6.03;1.60;;;;;;;15.00;90.07;100821.25;5075610;28;20050;-86